sensor_id;sensor_type;location;lat;lon;timestamp;pressure;altitude;pressure_sealevel;temperature;humidity
25869;BME280;13688;53.154;18.136;2022-07-29T00:01:55;101517.86;;;13.75;95.96
25869;BME280;13688;53.154;18.136;2022-07-29T00:07:17;101519.31;;;13.68;97.12
25869;BME280;13688;53.154;18.136;2022-07-29T00:12:40;101518.83;;;13.63;98.35
25869;BME280;13688;53.154;18.136;2022-07-29T00:18:02;101515.61;;;13.58;99.93
25869;BME280;13688;53.154;18.136;2022-07-29T00:23:24;101523.95;;;13.55;100.00
25869;BME280;13688;53.154;18.136;2022-07-29T00:28:46;101530.93;;;13.46;100.00
25869;BME280;13688;53.154;18.136;2022-07-29T00:34:11;101524.52;;;13.36;100.00
25869;BME280;13688;53.154;18.136;2022-07-29T00:39:45;101530.28;;;13.32;100.00
25869;BME280;13688;53.154;18.136;2022-07-29T00:45:07;101531.02;;;13.34;100.00
25869;BME280;13688;53.154;18.136;2022-07-29T00:50:32;101530.98;;;13.23;100.00
25869;BME280;13688;53.154;18.136;2022-07-29T00:55:56;101532.83;;;13.22;100.00
25869;BME280;13688;53.154;18.136;2022-07-29T01:01:19;101534.96;;;13.17;100.00
25869;BME280;13688;53.154;18.136;2022-07-29T01:06:42;101532.50;;;13.14;100.00
25869;BME280;13688;53.154;18.136;2022-07-29T01:12:05;101525.59;;;13.10;100.00
25869;BME280;13688;53.154;18.136;2022-07-29T01:29:48;101526.28;;;13.01;100.00
25869;BME280;13688;53.154;18.136;2022-07-29T01:35:22;101528.36;;;12.97;100.00
25869;BME280;13688;53.154;18.136;2022-07-29T01:40:54;101528.69;;;12.93;100.00
25869;BME280;13688;53.154;18.136;2022-07-29T01:46:36;101531.87;;;12.86;100.00
25869;BME280;13688;53.154;18.136;2022-07-29T01:52:07;101526.17;;;12.78;100.00
25869;BME280;13688;53.154;18.136;2022-07-29T01:57:30;101527.16;;;12.77;100.00
25869;BME280;13688;53.154;18.136;2022-07-29T02:02:54;101519.50;;;12.71;100.00
25869;BME280;13688;53.154;18.136;2022-07-29T02:08:19;101507.84;;;12.71;100.00
25869;BME280;13688;53.154;18.136;2022-07-29T02:13:44;101510.42;;;12.72;100.00
25869;BME280;13688;53.154;18.136;2022-07-29T02:19:10;101512.50;;;12.69;100.00
25869;BME280;13688;53.154;18.136;2022-07-29T02:24:36;101507.11;;;12.69;100.00
25869;BME280;13688;53.154;18.136;2022-07-29T02:30:00;101500.84;;;12.68;100.00
25869;BME280;13688;53.154;18.136;2022-07-29T02:35:24;101512.27;;;12.72;100.00
25869;BME280;13688;53.154;18.136;2022-07-29T02:40:48;101508.83;;;12.70;100.00
25869;BME280;13688;53.154;18.136;2022-07-29T02:46:14;101510.55;;;12.71;100.00
25869;BME280;13688;53.154;18.136;2022-07-29T02:51:43;101503.43;;;12.70;100.00
25869;BME280;13688;53.154;18.136;2022-07-29T02:57:28;101506.98;;;12.70;100.00
25869;BME280;13688;53.154;18.136;2022-07-29T03:03:12;101503.31;;;12.71;100.00
25869;BME280;13688;53.154;18.136;2022-07-29T03:08:35;101502.21;;;12.74;100.00
25869;BME280;13688;53.154;18.136;2022-07-29T03:14:00;101504.91;;;12.74;100.00
25869;BME280;13688;53.154;18.136;2022-07-29T03:19:25;101503.10;;;12.74;100.00
25869;BME280;13688;53.154;18.136;2022-07-29T03:24:48;101493.91;;;12.77;100.00
25869;BME280;13688;53.154;18.136;2022-07-29T03:30:11;101505.33;;;12.80;100.00
25869;BME280;13688;53.154;18.136;2022-07-29T03:35:33;101505.09;;;12.83;100.00
25869;BME280;13688;53.154;18.136;2022-07-29T03:41:01;101503.78;;;12.89;100.00
25869;BME280;13688;53.154;18.136;2022-07-29T03:46:29;101500.27;;;13.00;100.00
25869;BME280;13688;53.154;18.136;2022-07-29T03:51:51;101502.64;;;13.04;100.00
25869;BME280;13688;53.154;18.136;2022-07-29T03:57:16;101508.03;;;13.04;100.00
25869;BME280;13688;53.154;18.136;2022-07-29T04:02:42;101500.80;;;13.05;100.00
25869;BME280;13688;53.154;18.136;2022-07-29T04:08:06;101498.42;;;13.00;100.00
25869;BME280;13688;53.154;18.136;2022-07-29T04:13:28;101511.06;;;13.00;100.00
25869;BME280;13688;53.154;18.136;2022-07-29T04:18:50;101504.36;;;13.05;100.00
25869;BME280;13688;53.154;18.136;2022-07-29T04:24:13;101512.50;;;13.16;100.00
25869;BME280;13688;53.154;18.136;2022-07-29T04:29:35;101510.48;;;13.31;100.00
25869;BME280;13688;53.154;18.136;2022-07-29T04:34:59;101522.11;;;13.56;100.00
25869;BME280;13688;53.154;18.136;2022-07-29T04:40:22;101526.69;;;13.66;100.00
25869;BME280;13688;53.154;18.136;2022-07-29T04:45:46;101520.09;;;13.82;100.00
25869;BME280;13688;53.154;18.136;2022-07-29T04:51:10;101521.95;;;14.03;100.00
25869;BME280;13688;53.154;18.136;2022-07-29T04:56:32;101523.19;;;14.22;99.32
25869;BME280;13688;53.154;18.136;2022-07-29T05:01:56;101522.07;;;14.24;97.21
25869;BME280;13688;53.154;18.136;2022-07-29T05:07:19;101531.16;;;14.35;96.32
25869;BME280;13688;53.154;18.136;2022-07-29T05:12:42;101525.01;;;14.44;94.52
25869;BME280;13688;53.154;18.136;2022-07-29T05:18:05;101531.30;;;14.55;93.53
25869;BME280;13688;53.154;18.136;2022-07-29T05:23:27;101537.05;;;14.73;92.80
25869;BME280;13688;53.154;18.136;2022-07-29T05:28:50;101527.67;;;14.88;91.04
25869;BME280;13688;53.154;18.136;2022-07-29T05:34:12;101540.98;;;14.80;89.79
25869;BME280;13688;53.154;18.136;2022-07-29T05:39:35;101539.99;;;14.81;89.58
25869;BME280;13688;53.154;18.136;2022-07-29T05:45:00;101533.41;;;15.06;88.90
25869;BME280;13688;53.154;18.136;2022-07-29T05:50:24;101539.08;;;15.35;86.45
25869;BME280;13688;53.154;18.136;2022-07-29T05:55:48;101529.83;;;15.59;83.88
25869;BME280;13688;53.154;18.136;2022-07-29T06:01:11;101524.48;;;15.89;82.14
25869;BME280;13688;53.154;18.136;2022-07-29T06:06:34;101528.87;;;16.11;79.70
25869;BME280;13688;53.154;18.136;2022-07-29T06:11:58;101531.43;;;16.34;77.93
25869;BME280;13688;53.154;18.136;2022-07-29T06:17:21;101524.61;;;16.49;76.13
25869;BME280;13688;53.154;18.136;2022-07-29T06:22:44;101530.98;;;16.69;75.10
25869;BME280;13688;53.154;18.136;2022-07-29T06:28:07;101527.34;;;16.89;73.24
25869;BME280;13688;53.154;18.136;2022-07-29T06:33:30;101523.64;;;17.09;71.87
25869;BME280;13688;53.154;18.136;2022-07-29T06:38:53;101522.80;;;17.28;70.54
25869;BME280;13688;53.154;18.136;2022-07-29T06:44:17;101519.75;;;17.60;69.87
25869;BME280;13688;53.154;18.136;2022-07-29T06:49:40;101515.72;;;17.84;67.93
25869;BME280;13688;53.154;18.136;2022-07-29T06:55:03;101514.96;;;18.01;67.15
25869;BME280;13688;53.154;18.136;2022-07-29T07:00:27;101519.63;;;18.18;66.20
25869;BME280;13688;53.154;18.136;2022-07-29T07:05:51;101523.98;;;18.39;64.97
25869;BME280;13688;53.154;18.136;2022-07-29T07:11:14;101521.14;;;18.68;64.20
25869;BME280;13688;53.154;18.136;2022-07-29T07:16:37;101521.49;;;18.82;63.09
25869;BME280;13688;53.154;18.136;2022-07-29T07:22:01;101521.34;;;18.84;63.00
25869;BME280;13688;53.154;18.136;2022-07-29T07:27:24;101510.30;;;19.03;61.97
25869;BME280;13688;53.154;18.136;2022-07-29T07:32:47;101507.42;;;19.23;62.11
25869;BME280;13688;53.154;18.136;2022-07-29T07:38:10;101508.47;;;19.48;61.01
25869;BME280;13688;53.154;18.136;2022-07-29T07:43:32;101506.60;;;19.66;59.89
25869;BME280;13688;53.154;18.136;2022-07-29T07:48:55;101502.88;;;19.93;59.05
25869;BME280;13688;53.154;18.136;2022-07-29T07:54:18;101498.84;;;20.05;58.27
25869;BME280;13688;53.154;18.136;2022-07-29T07:59:41;101511.00;;;20.11;57.27
25869;BME280;13688;53.154;18.136;2022-07-29T08:05:04;101505.64;;;20.35;56.84
25869;BME280;13688;53.154;18.136;2022-07-29T08:10:27;101499.95;;;20.54;56.04
25869;BME280;13688;53.154;18.136;2022-07-29T08:16:14;101497.97;;;20.73;54.69
25869;BME280;13688;53.154;18.136;2022-07-29T08:21:38;101507.73;;;20.83;54.68
25869;BME280;13688;53.154;18.136;2022-07-29T08:27:02;101506.59;;;20.94;53.84
25869;BME280;13688;53.154;18.136;2022-07-29T08:32:29;101499.25;;;21.19;52.53
25869;BME280;13688;53.154;18.136;2022-07-29T08:37:53;101511.78;;;21.38;51.22
25869;BME280;13688;53.154;18.136;2022-07-29T08:43:15;101509.91;;;21.55;50.35
25869;BME280;13688;53.154;18.136;2022-07-29T08:48:38;101506.95;;;21.89;49.02
25869;BME280;13688;53.154;18.136;2022-07-29T08:54:02;101502.13;;;21.99;48.00
25869;BME280;13688;53.154;18.136;2022-07-29T08:59:26;101506.37;;;22.26;48.44
25869;BME280;13688;53.154;18.136;2022-07-29T09:04:50;101499.73;;;22.20;46.72
25869;BME280;13688;53.154;18.136;2022-07-29T09:10:14;101497.84;;;22.21;46.44
25869;BME280;13688;53.154;18.136;2022-07-29T09:15:38;101505.36;;;22.19;47.30
25869;BME280;13688;53.154;18.136;2022-07-29T09:21:01;101491.91;;;22.88;44.50
25869;BME280;13688;53.154;18.136;2022-07-29T09:26:48;101493.91;;;23.39;44.48
25869;BME280;13688;53.154;18.136;2022-07-29T09:32:15;101501.09;;;23.63;43.20
25869;BME280;13688;53.154;18.136;2022-07-29T09:37:38;101487.52;;;23.99;41.42
25869;BME280;13688;53.154;18.136;2022-07-29T09:43:08;101480.42;;;24.49;40.32
25869;BME280;13688;53.154;18.136;2022-07-29T09:48:29;101477.45;;;24.66;38.83
25869;BME280;13688;53.154;18.136;2022-07-29T09:53:52;101479.66;;;24.55;39.87
25869;BME280;13688;53.154;18.136;2022-07-29T09:59:15;101474.82;;;24.28;39.42
25869;BME280;13688;53.154;18.136;2022-07-29T10:04:45;101470.20;;;24.14;39.17
25869;BME280;13688;53.154;18.136;2022-07-29T10:10:07;101472.83;;;23.92;39.49
25869;BME280;13688;53.154;18.136;2022-07-29T10:15:40;101456.63;;;23.83;39.33
25869;BME280;13688;53.154;18.136;2022-07-29T10:21:06;101459.20;;;23.84;38.78
25869;BME280;13688;53.154;18.136;2022-07-29T10:26:30;101454.45;;;23.93;38.30
25869;BME280;13688;53.154;18.136;2022-07-29T10:32:00;101457.31;;;23.85;37.44
25869;BME280;13688;53.154;18.136;2022-07-29T10:37:31;101467.81;;;24.11;37.81
25869;BME280;13688;53.154;18.136;2022-07-29T10:42:55;101449.72;;;24.02;37.87
25869;BME280;13688;53.154;18.136;2022-07-29T10:48:22;101457.20;;;23.78;36.35
25869;BME280;13688;53.154;18.136;2022-07-29T10:53:54;101456.55;;;23.76;36.09
25869;BME280;13688;53.154;18.136;2022-07-29T10:59:26;101457.28;;;23.70;36.98
25869;BME280;13688;53.154;18.136;2022-07-29T11:10:22;101449.92;;;23.85;35.83
25869;BME280;13688;53.154;18.136;2022-07-29T11:16:02;101446.79;;;23.88;35.48
25869;BME280;13688;53.154;18.136;2022-07-29T11:21:42;101450.59;;;23.50;35.65
25869;BME280;13688;53.154;18.136;2022-07-29T11:27:18;101439.48;;;23.66;34.95
25869;BME280;13688;53.154;18.136;2022-07-29T11:32:44;101443.77;;;23.98;35.15
25869;BME280;13688;53.154;18.136;2022-07-29T11:38:25;101447.80;;;23.73;35.24
25869;BME280;13688;53.154;18.136;2022-07-29T11:43:56;101453.03;;;23.67;34.36
25869;BME280;13688;53.154;18.136;2022-07-29T11:49:22;101452.95;;;23.76;34.39
25869;BME280;13688;53.154;18.136;2022-07-29T11:54:48;101446.80;;;24.03;34.13
25869;BME280;13688;53.154;18.136;2022-07-29T12:00:21;101438.93;;;24.15;34.13
25869;BME280;13688;53.154;18.136;2022-07-29T12:05:44;101434.09;;;24.17;33.82
25869;BME280;13688;53.154;18.136;2022-07-29T12:11:14;101424.67;;;24.55;32.48
25869;BME280;13688;53.154;18.136;2022-07-29T12:16:42;101428.89;;;24.73;30.94
25869;BME280;13688;53.154;18.136;2022-07-29T12:22:06;101435.23;;;25.09;31.15
25869;BME280;13688;53.154;18.136;2022-07-29T12:27:31;101425.30;;;24.94;31.77
25869;BME280;13688;53.154;18.136;2022-07-29T12:32:54;101417.26;;;25.14;32.56
25869;BME280;13688;53.154;18.136;2022-07-29T12:38:17;101416.81;;;24.52;31.54
25869;BME280;13688;53.154;18.136;2022-07-29T12:43:51;101408.98;;;24.71;32.68
25869;BME280;13688;53.154;18.136;2022-07-29T12:49:05;101403.18;;;24.44;32.33
25869;BME280;13688;53.154;18.136;2022-07-29T12:54:29;101401.50;;;24.65;32.45
25869;BME280;13688;53.154;18.136;2022-07-29T13:00:08;101407.63;;;24.45;32.85
25869;BME280;13688;53.154;18.136;2022-07-29T13:05:47;101408.94;;;24.49;32.59
25869;BME280;13688;53.154;18.136;2022-07-29T13:11:26;101406.03;;;24.94;31.91
25869;BME280;13688;53.154;18.136;2022-07-29T13:17:08;101401.11;;;25.88;30.72
25869;BME280;13688;53.154;18.136;2022-07-29T13:22:42;101381.37;;;26.25;29.92
25869;BME280;13688;53.154;18.136;2022-07-29T13:28:05;101382.59;;;26.77;28.19
25869;BME280;13688;53.154;18.136;2022-07-29T13:33:28;101379.14;;;28.01;27.41
25869;BME280;13688;53.154;18.136;2022-07-29T13:38:51;101365.41;;;28.26;26.48
25869;BME280;13688;53.154;18.136;2022-07-29T13:44:15;101371.09;;;27.86;26.60
25869;BME280;13688;53.154;18.136;2022-07-29T13:49:37;101356.16;;;29.15;26.18
25869;BME280;13688;53.154;18.136;2022-07-29T13:55:00;101351.55;;;28.39;25.99
25869;BME280;13688;53.154;18.136;2022-07-29T14:00:23;101350.25;;;28.42;25.67
25869;BME280;13688;53.154;18.136;2022-07-29T14:05:46;101352.52;;;28.90;25.87
25869;BME280;13688;53.154;18.136;2022-07-29T14:11:10;101339.63;;;29.27;24.49
25869;BME280;13688;53.154;18.136;2022-07-29T14:16:33;101340.68;;;28.76;25.32
25869;BME280;13688;53.154;18.136;2022-07-29T14:21:57;101330.16;;;29.59;24.35
25869;BME280;13688;53.154;18.136;2022-07-29T14:27:20;101322.31;;;29.56;24.24
25869;BME280;13688;53.154;18.136;2022-07-29T14:32:45;101318.00;;;28.61;25.86
25869;BME280;13688;53.154;18.136;2022-07-29T14:38:07;101321.00;;;29.77;24.47
25869;BME280;13688;53.154;18.136;2022-07-29T14:43:32;101314.97;;;28.69;24.53
25869;BME280;13688;53.154;18.136;2022-07-29T14:48:55;101320.59;;;27.46;26.25
25869;BME280;13688;53.154;18.136;2022-07-29T14:54:18;101315.84;;;28.94;24.58
25869;BME280;13688;53.154;18.136;2022-07-29T14:59:40;101301.28;;;29.49;24.42
25869;BME280;13688;53.154;18.136;2022-07-29T15:05:03;101306.55;;;28.57;24.40
25869;BME280;13688;53.154;18.136;2022-07-29T15:10:26;101296.55;;;28.81;24.98
25869;BME280;13688;53.154;18.136;2022-07-29T15:15:49;101290.72;;;28.64;24.42
25869;BME280;13688;53.154;18.136;2022-07-29T15:21:11;101284.03;;;28.47;25.13
25869;BME280;13688;53.154;18.136;2022-07-29T15:26:34;101283.06;;;29.16;24.42
25869;BME280;13688;53.154;18.136;2022-07-29T15:31:56;101276.73;;;27.83;26.75
25869;BME280;13688;53.154;18.136;2022-07-29T15:37:18;101274.37;;;28.31;25.44
25869;BME280;13688;53.154;18.136;2022-07-29T15:42:44;101274.80;;;28.60;25.25
25869;BME280;13688;53.154;18.136;2022-07-29T15:48:09;101270.59;;;28.19;25.58
25869;BME280;13688;53.154;18.136;2022-07-29T15:53:31;101263.97;;;29.08;24.88
25869;BME280;13688;53.154;18.136;2022-07-29T15:58:56;101270.02;;;28.04;26.27
25869;BME280;13688;53.154;18.136;2022-07-29T16:04:20;101258.84;;;27.85;26.25
25869;BME280;13688;53.154;18.136;2022-07-29T16:09:43;101256.66;;;28.01;25.49
25869;BME280;13688;53.154;18.136;2022-07-29T16:15:05;101250.73;;;29.10;24.38
25869;BME280;13688;53.154;18.136;2022-07-29T16:20:28;101244.70;;;28.95;24.75
25869;BME280;13688;53.154;18.136;2022-07-29T16:25:51;101246.19;;;28.97;24.17
25869;BME280;13688;53.154;18.136;2022-07-29T16:31:13;101254.39;;;27.84;25.54
25869;BME280;13688;53.154;18.136;2022-07-29T16:36:36;101253.06;;;26.30;28.02
25869;BME280;13688;53.154;18.136;2022-07-29T16:41:58;101250.37;;;26.76;27.99
25869;BME280;13688;53.154;18.136;2022-07-29T16:47:22;101248.94;;;25.92;29.33
25869;BME280;13688;53.154;18.136;2022-07-29T16:52:45;101252.36;;;25.53;30.85
25869;BME280;13688;53.154;18.136;2022-07-29T16:58:08;101245.37;;;25.99;31.49
25869;BME280;13688;53.154;18.136;2022-07-29T17:03:30;101254.00;;;25.82;31.47
25869;BME280;13688;53.154;18.136;2022-07-29T17:09:11;101254.04;;;25.13;32.78
25869;BME280;13688;53.154;18.136;2022-07-29T17:14:35;101243.84;;;24.15;34.23
25869;BME280;13688;53.154;18.136;2022-07-29T17:19:57;101247.47;;;23.50;35.86
25869;BME280;13688;53.154;18.136;2022-07-29T17:25:22;101246.91;;;23.39;37.39
25869;BME280;13688;53.154;18.136;2022-07-29T17:30:44;101245.67;;;23.12;37.77
25869;BME280;13688;53.154;18.136;2022-07-29T17:36:06;101246.23;;;22.93;37.94
25869;BME280;13688;53.154;18.136;2022-07-29T17:41:47;101247.39;;;22.76;37.91
25869;BME280;13688;53.154;18.136;2022-07-29T17:47:11;101253.11;;;22.51;38.98
25869;BME280;13688;53.154;18.136;2022-07-29T17:52:33;101250.05;;;22.46;39.28
25869;BME280;13688;53.154;18.136;2022-07-29T17:57:55;101260.23;;;22.61;39.28
25869;BME280;13688;53.154;18.136;2022-07-29T18:03:18;101245.80;;;22.44;39.46
25869;BME280;13688;53.154;18.136;2022-07-29T18:08:41;101249.16;;;22.00;40.78
25869;BME280;13688;53.154;18.136;2022-07-29T18:14:04;101249.36;;;22.30;40.24
25869;BME280;13688;53.154;18.136;2022-07-29T18:19:27;101249.60;;;22.20;40.57
25869;BME280;13688;53.154;18.136;2022-07-29T18:24:51;101258.83;;;21.88;41.33
25869;BME280;13688;53.154;18.136;2022-07-29T18:30:15;101248.45;;;21.44;42.26
25869;BME280;13688;53.154;18.136;2022-07-29T18:35:38;101253.45;;;21.24;42.60
25869;BME280;13688;53.154;18.136;2022-07-29T18:41:05;101267.70;;;20.95;43.24
25869;BME280;13688;53.154;18.136;2022-07-29T18:46:28;101269.43;;;20.72;43.86
25869;BME280;13688;53.154;18.136;2022-07-29T18:51:54;101265.84;;;20.55;44.25
25869;BME280;13688;53.154;18.136;2022-07-29T18:57:17;101264.27;;;20.20;44.93
25869;BME280;13688;53.154;18.136;2022-07-29T19:02:41;101269.02;;;20.01;45.87
25869;BME280;13688;53.154;18.136;2022-07-29T19:08:07;101274.25;;;19.79;46.86
25869;BME280;13688;53.154;18.136;2022-07-29T19:13:29;101281.00;;;19.66;48.10
25869;BME280;13688;53.154;18.136;2022-07-29T19:18:53;101284.63;;;19.41;49.85
25869;BME280;13688;53.154;18.136;2022-07-29T19:24:16;101286.08;;;19.27;51.73
25869;BME280;13688;53.154;18.136;2022-07-29T19:29:39;101293.41;;;19.01;53.15
25869;BME280;13688;53.154;18.136;2022-07-29T19:35:04;101296.72;;;18.86;54.71
25869;BME280;13688;53.154;18.136;2022-07-29T19:40:42;101302.11;;;18.78;56.30
25869;BME280;13688;53.154;18.136;2022-07-29T19:46:05;101295.73;;;18.70;57.24
25869;BME280;13688;53.154;18.136;2022-07-29T19:51:28;101298.84;;;18.57;58.41
25869;BME280;13688;53.154;18.136;2022-07-29T19:56:52;101310.06;;;18.36;59.78
25869;BME280;13688;53.154;18.136;2022-07-29T20:02:14;101306.47;;;18.18;61.09
25869;BME280;13688;53.154;18.136;2022-07-29T20:07:38;101309.70;;;18.03;61.91
25869;BME280;13688;53.154;18.136;2022-07-29T20:13:00;101308.75;;;17.95;62.58
25869;BME280;13688;53.154;18.136;2022-07-29T20:18:23;101313.11;;;17.88;63.07
25869;BME280;13688;53.154;18.136;2022-07-29T20:23:46;101317.44;;;17.81;63.51
25869;BME280;13688;53.154;18.136;2022-07-29T20:29:10;101325.34;;;17.74;63.67
25869;BME280;13688;53.154;18.136;2022-07-29T20:34:34;101322.20;;;17.69;63.94
25869;BME280;13688;53.154;18.136;2022-07-29T20:39:56;101323.09;;;17.69;64.08
25869;BME280;13688;53.154;18.136;2022-07-29T20:45:23;101318.05;;;17.65;64.02
25869;BME280;13688;53.154;18.136;2022-07-29T20:50:47;101315.53;;;17.54;64.24
25869;BME280;13688;53.154;18.136;2022-07-29T20:56:09;101319.77;;;17.38;64.57
25869;BME280;13688;53.154;18.136;2022-07-29T21:01:32;101319.52;;;17.22;64.99
25869;BME280;13688;53.154;18.136;2022-07-29T21:06:55;101313.12;;;17.04;65.85
25869;BME280;13688;53.154;18.136;2022-07-29T21:12:18;101318.89;;;16.91;66.40
25869;BME280;13688;53.154;18.136;2022-07-29T21:17:42;101315.58;;;16.87;66.68
25869;BME280;13688;53.154;18.136;2022-07-29T21:23:15;101316.45;;;16.78;67.00
25869;BME280;13688;53.154;18.136;2022-07-29T21:28:38;101311.00;;;16.59;67.71
25869;BME280;13688;53.154;18.136;2022-07-29T21:34:01;101309.59;;;16.45;68.32
25869;BME280;13688;53.154;18.136;2022-07-29T21:39:24;101307.03;;;16.44;68.67
25869;BME280;13688;53.154;18.136;2022-07-29T21:44:47;101314.46;;;16.32;69.00
25869;BME280;13688;53.154;18.136;2022-07-29T21:50:10;101309.28;;;16.19;69.45
25869;BME280;13688;53.154;18.136;2022-07-29T21:55:32;101304.14;;;16.07;70.24
25869;BME280;13688;53.154;18.136;2022-07-29T22:00:57;101296.84;;;15.97;70.79
25869;BME280;13688;53.154;18.136;2022-07-29T22:06:19;101302.70;;;15.93;71.05
25869;BME280;13688;53.154;18.136;2022-07-29T22:11:43;101293.95;;;15.80;71.67
25869;BME280;13688;53.154;18.136;2022-07-29T22:17:05;101297.48;;;15.70;72.13
25869;BME280;13688;53.154;18.136;2022-07-29T22:22:28;101293.64;;;15.63;72.53
25869;BME280;13688;53.154;18.136;2022-07-29T22:27:51;101284.98;;;15.49;73.12
25869;BME280;13688;53.154;18.136;2022-07-29T22:33:13;101281.98;;;15.52;73.59
25869;BME280;13688;53.154;18.136;2022-07-29T22:38:37;101289.83;;;15.45;73.72
25869;BME280;13688;53.154;18.136;2022-07-29T22:44:00;101293.78;;;15.41;74.10
25869;BME280;13688;53.154;18.136;2022-07-29T22:49:22;101281.48;;;15.27;74.58
25869;BME280;13688;53.154;18.136;2022-07-29T22:54:45;101282.15;;;15.20;74.99
25869;BME280;13688;53.154;18.136;2022-07-29T23:00:08;101284.33;;;15.26;75.01
25869;BME280;13688;53.154;18.136;2022-07-29T23:05:30;101281.44;;;15.17;75.06
25869;BME280;13688;53.154;18.136;2022-07-29T23:10:53;101281.82;;;15.13;75.09
25869;BME280;13688;53.154;18.136;2022-07-29T23:16:16;101282.67;;;15.13;74.78
25869;BME280;13688;53.154;18.136;2022-07-29T23:21:38;101278.81;;;15.06;74.67
25869;BME280;13688;53.154;18.136;2022-07-29T23:27:00;101279.01;;;14.94;75.53
25869;BME280;13688;53.154;18.136;2022-07-29T23:32:22;101278.95;;;14.84;76.25
25869;BME280;13688;53.154;18.136;2022-07-29T23:37:45;101275.47;;;14.72;76.33
25869;BME280;13688;53.154;18.136;2022-07-29T23:43:07;101266.42;;;14.62;77.40
25869;BME280;13688;53.154;18.136;2022-07-29T23:48:30;101260.16;;;14.62;77.82
25869;BME280;13688;53.154;18.136;2022-07-29T23:53:52;101265.43;;;14.63;77.55
25869;BME280;13688;53.154;18.136;2022-07-29T23:59:14;101252.89;;;14.62;77.23
